createdAt,value
2022-09-11T00:00:02.996Z,5.45
2022-09-11T00:05:14.582Z,2.38
2022-09-11T00:10:16.535Z,4.65
2022-09-11T00:15:18.280Z,3.38
2022-09-11T00:20:19.941Z,2.17
2022-09-11T00:25:21.580Z,3.50
2022-09-11T00:30:23.256Z,6.20
2022-09-11T00:35:25.902Z,3.45
2022-09-11T00:40:27.587Z,3.53
2022-09-11T00:45:29.291Z,2.00
2022-09-11T00:50:32.742Z,3.00
2022-09-11T00:55:37.934Z,3.63
2022-09-11T01:00:43.286Z,2.70
2022-09-11T01:05:48.316Z,5.57
2022-09-11T01:11:20.468Z,3.33
2022-09-11T01:16:43.849Z,5.45
2022-09-11T01:21:52.659Z,2.88
2022-09-11T01:27:19.349Z,11.10
2022-09-11T01:32:27.860Z,2.72
2022-09-11T01:37:56.164Z,2.97
2022-09-11T01:43:06.246Z,5.53
2022-09-11T01:48:09.925Z,8.75
2022-09-11T01:53:14.657Z,3.97
2022-09-11T01:58:24.829Z,7.97
2022-09-11T02:03:29.976Z,4.15
2022-09-11T02:08:38.210Z,5.43
2022-09-11T02:13:50.041Z,5.60
2022-09-11T02:19:04.794Z,4.00
2022-09-11T02:24:06.943Z,4.60
2022-09-11T02:29:08.828Z,4.55
2022-09-11T02:34:14.567Z,4.07
2022-09-11T02:39:46.385Z,4.75
2022-09-11T02:45:07.481Z,6.82
2022-09-11T02:50:18.963Z,3.90
2022-09-11T02:55:39.895Z,8.60
2022-09-11T03:00:42.549Z,5.18
2022-09-11T03:05:44.466Z,3.90
2022-09-11T03:10:46.773Z,6.88
2022-09-11T03:15:48.679Z,7.75
2022-09-11T03:20:51.889Z,6.82
2022-09-11T03:25:55.596Z,6.30
2022-09-11T03:30:58.259Z,8.23
2022-09-11T03:36:01.233Z,4.07
2022-09-11T03:41:03.531Z,4.15
2022-09-11T03:46:06.833Z,5.22
2022-09-11T03:51:08.922Z,6.00
2022-09-11T03:56:12.104Z,6.15
2022-09-11T04:01:20.004Z,4.78
2022-09-11T04:06:23.600Z,4.03
2022-09-11T04:11:25.384Z,3.95
2022-09-11T04:16:27.110Z,6.07
2022-09-11T04:21:31.242Z,5.05
2022-09-11T04:26:34.200Z,4.40
2022-09-11T04:31:44.068Z,6.75
2022-09-11T04:36:48.624Z,12.85
2022-09-11T04:41:55.947Z,6.25
2022-09-11T04:46:57.811Z,9.02
2022-09-11T04:52:05.895Z,10.05
2022-09-11T04:57:09.201Z,8.02
2022-09-11T05:02:12.593Z,7.70
2022-09-11T05:07:17.661Z,6.75
2022-09-11T05:12:22.937Z,10.85
2022-09-11T05:17:24.534Z,7.10
2022-09-11T05:22:26.520Z,7.05
2022-09-11T05:27:31.727Z,5.43
2022-09-11T05:32:33.465Z,10.68
2022-09-11T05:37:36.807Z,7.00
2022-09-11T05:42:38.795Z,7.03
2022-09-11T05:47:40.449Z,6.05
2022-09-11T05:52:42.180Z,7.57
2022-09-11T05:57:43.878Z,9.20
2022-09-11T06:02:48.976Z,8.90
2022-09-11T06:07:52.263Z,7.50
2022-09-11T06:12:54.047Z,10.35
2022-09-11T06:17:56.188Z,12.30
2022-09-11T06:22:57.914Z,12.63
2022-09-11T06:28:01.639Z,13.05
2022-09-11T06:33:03.922Z,13.05
2022-09-11T06:38:05.732Z,13.48
2022-09-11T06:43:08.218Z,13.02
2022-09-11T06:48:09.923Z,11.85
2022-09-11T06:53:14.260Z,16.73
2022-09-11T06:58:23.156Z,11.25
2022-09-11T07:03:25.307Z,12.27
2022-09-11T07:08:28.914Z,12.38
2022-09-11T07:13:36.742Z,11.73
2022-09-11T07:18:42.444Z,10.55
2022-09-11T07:23:50.818Z,12.23
2022-09-11T07:28:54.748Z,14.75
2022-09-11T07:33:57.668Z,15.25
2022-09-11T07:39:01.378Z,24.48
2022-09-11T07:44:25.910Z,13.60
2022-09-11T07:49:28.292Z,12.65
2022-09-11T07:54:31.095Z,12.45
2022-09-11T07:59:33.380Z,9.90
2022-09-11T08:04:37.180Z,8.88
2022-09-11T08:09:39.949Z,7.10
2022-09-11T08:14:43.305Z,7.13
2022-09-11T08:19:52.058Z,6.65
2022-09-11T08:24:53.812Z,6.75
2022-09-11T08:29:55.838Z,6.95
2022-09-11T08:34:57.738Z,5.90
2022-09-11T08:39:59.983Z,10.25
2022-09-11T08:45:04.206Z,8.05
2022-09-11T08:50:16.559Z,7.65
2022-09-11T08:55:43.767Z,10.10
2022-09-11T09:00:58.496Z,10.18
2022-09-11T09:06:25.420Z,7.22
2022-09-11T09:11:59.426Z,10.25
2022-09-11T09:17:14.780Z,7.88
2022-09-11T09:22:27.440Z,15.60
2022-09-11T09:27:34.857Z,18.15
2022-09-11T09:32:43.921Z,17.10
2022-09-11T09:37:45.946Z,15.68
2022-09-11T09:42:53.507Z,18.35
2022-09-11T09:47:55.130Z,19.77
2022-09-11T09:53:03.972Z,22.65
2022-09-11T09:58:07.219Z,22.50
2022-09-11T10:03:23.307Z,24.63
2022-09-11T10:08:30.493Z,25.42
2022-09-11T10:13:34.961Z,27.25
2022-09-11T10:18:40.265Z,28.30
2022-09-11T10:24:02.932Z,26.13
2022-09-11T10:29:14.181Z,22.17
2022-09-11T10:34:20.300Z,20.70
2022-09-11T10:39:25.117Z,19.17
2022-09-11T10:44:28.729Z,24.10
2022-09-11T10:49:30.532Z,17.35
2022-09-11T10:54:58.543Z,16.20
2022-09-11T11:00:13.568Z,16.13
2022-09-11T11:05:32.431Z,14.05
2022-09-11T11:10:47.261Z,12.98
2022-09-11T11:16:17.761Z,12.95
2022-09-11T11:21:35.270Z,9.98
2022-09-11T11:26:51.117Z,13.57
2022-09-11T11:32:17.605Z,13.15
2022-09-11T11:37:24.722Z,12.98
2022-09-11T11:42:35.469Z,12.95
2022-09-11T11:47:45.852Z,12.07
2022-09-11T11:52:59.347Z,15.77
2022-09-11T11:58:12.687Z,15.20
2022-09-11T12:03:30.032Z,14.30
2022-09-11T12:08:31.730Z,15.32
2022-09-11T12:13:43.207Z,15.48
2022-09-11T12:19:19.792Z,15.52
2022-09-11T12:24:43.227Z,21.77
2022-09-11T12:29:56.803Z,17.70
2022-09-11T12:35:02.961Z,17.52
2022-09-11T12:40:19.175Z,18.48
2022-09-11T12:45:36.848Z,16.08
2022-09-11T12:50:39.025Z,15.85
2022-09-11T12:56:16.669Z,19.55
2022-09-11T13:01:25.118Z,16.50
2022-09-11T13:06:40.919Z,13.20
2022-09-11T13:11:45.603Z,14.27
2022-09-11T13:16:52.516Z,13.25
2022-09-11T13:21:55.144Z,10.20
2022-09-11T13:27:14.006Z,9.43
2022-09-11T13:32:17.375Z,11.80
2022-09-11T13:37:37.389Z,8.50
2022-09-11T13:42:40.395Z,7.72
2022-09-11T13:47:42.364Z,6.57
2022-09-11T13:52:45.660Z,7.38
2022-09-11T13:57:53.106Z,9.25
2022-09-11T14:02:54.881Z,8.10
2022-09-11T14:08:01.481Z,9.98
2022-09-11T14:13:24.699Z,9.90
2022-09-11T14:18:46.162Z,8.27
2022-09-11T14:23:55.109Z,6.97
2022-09-11T14:29:03.313Z,6.80
2022-09-11T14:34:11.135Z,6.63
2022-09-11T14:39:15.756Z,8.15
2022-09-11T14:44:17.960Z,8.77
2022-09-11T14:49:19.641Z,7.55
2022-09-11T14:54:22.860Z,7.57
2022-09-11T14:59:24.914Z,13.38
2022-09-11T15:04:27.445Z,7.78
2022-09-11T15:09:29.246Z,5.70
2022-09-11T15:14:55.041Z,6.07
2022-09-11T15:19:54.137Z,6.30
2022-09-11T15:24:56.639Z,9.15
2022-09-11T15:29:58.267Z,8.35
2022-09-11T15:34:59.964Z,7.32
2022-09-11T15:40:02.004Z,7.47
2022-09-11T15:45:04.244Z,8.02
2022-09-11T15:50:06.519Z,9.00
2022-09-11T15:55:09.560Z,9.90
2022-09-11T16:00:12.067Z,8.52
2022-09-11T16:05:14.541Z,7.10
2022-09-11T16:10:16.169Z,8.50
2022-09-11T16:15:18.266Z,7.07
2022-09-11T16:20:20.263Z,7.57
2022-09-11T16:25:22.067Z,6.07
2022-09-11T16:30:42.483Z,8.90
2022-09-11T16:35:45.388Z,8.73
2022-09-11T16:40:47.018Z,9.38
2022-09-11T16:45:52.672Z,9.77
2022-09-11T16:50:55.241Z,7.90
2022-09-11T16:55:56.895Z,11.35
2022-09-11T17:00:58.886Z,9.13
2022-09-11T17:06:00.541Z,8.63
2022-09-11T17:11:02.545Z,8.35
2022-09-11T17:16:06.793Z,9.77
2022-09-11T17:21:09.827Z,10.23
2022-09-11T17:26:14.064Z,7.45
2022-09-11T17:31:19.168Z,8.27
2022-09-11T17:36:21.785Z,10.35
2022-09-11T17:41:23.472Z,9.15
2022-09-11T17:46:25.213Z,9.55
2022-09-11T17:51:27.923Z,12.27
2022-09-11T17:56:33.262Z,11.98
2022-09-11T18:01:34.961Z,10.63
2022-09-11T18:06:38.494Z,8.05
2022-09-11T18:11:43.130Z,9.18
2022-09-11T18:16:47.309Z,8.30
2022-09-11T18:21:50.510Z,7.53
2022-09-11T18:26:58.570Z,9.10
2022-09-11T18:32:03.496Z,7.55
2022-09-11T18:37:05.266Z,8.88
2022-09-11T18:42:07.178Z,9.23
2022-09-11T18:47:08.784Z,9.30
2022-09-11T18:52:10.868Z,9.63
2022-09-11T18:57:12.448Z,7.47
2022-09-11T19:02:14.482Z,9.88
2022-09-11T19:07:16.140Z,11.02
2022-09-11T19:12:17.765Z,9.75
2022-09-11T19:17:19.479Z,7.47
2022-09-11T19:22:22.881Z,11.15
2022-09-11T19:27:26.236Z,11.73
2022-09-11T19:32:28.195Z,10.65
2022-09-11T19:37:30.054Z,8.95
2022-09-11T19:42:32.494Z,12.65
2022-09-11T19:47:34.148Z,13.65
2022-09-11T19:52:35.744Z,14.82
2022-09-11T19:57:37.324Z,15.85
2022-09-11T20:02:39.124Z,14.30
2022-09-11T20:07:40.703Z,14.65
2022-09-11T20:12:42.310Z,13.05
2022-09-11T20:17:44.858Z,15.32
2022-09-11T20:22:46.779Z,13.52
2022-09-11T20:27:48.820Z,13.43
2022-09-11T20:32:50.725Z,13.20
2022-09-11T20:37:55.471Z,17.80
2022-09-11T20:42:57.105Z,17.20
2022-09-11T20:48:00.493Z,19.27
2022-09-11T20:53:02.310Z,19.83
2022-09-11T20:58:05.849Z,16.27
2022-09-11T21:03:07.437Z,14.98
2022-09-11T21:08:09.050Z,15.02
2022-09-11T21:13:14.671Z,14.13
2022-09-11T21:18:16.413Z,12.73
2022-09-11T21:23:18.031Z,14.05
2022-09-11T21:28:19.723Z,14.75
2022-09-11T21:33:21.390Z,17.73
2022-09-11T21:38:24.828Z,16.42
2022-09-11T21:43:27.827Z,15.85
2022-09-11T21:48:33.641Z,20.27
2022-09-11T21:53:38.353Z,19.58
2022-09-11T21:58:39.935Z,19.70
2022-09-11T22:03:41.738Z,14.85
2022-09-11T22:08:44.557Z,16.95
2022-09-11T22:13:47.748Z,16.02
2022-09-11T22:18:52.927Z,15.15
2022-09-11T22:23:55.286Z,17.35
2022-09-11T22:29:00.216Z,19.38
2022-09-11T22:34:02.080Z,15.52
2022-09-11T22:39:05.469Z,18.65
2022-09-11T22:44:08.164Z,19.80
2022-09-11T22:49:09.995Z,25.95
2022-09-11T22:54:13.636Z,18.23
2022-09-11T22:59:15.242Z,17.42
2022-09-11T23:04:17.026Z,17.65
2022-09-11T23:09:18.651Z,20.33
2022-09-11T23:14:20.259Z,17.33
2022-09-11T23:19:22.513Z,20.95
2022-09-11T23:24:24.164Z,18.48
2022-09-11T23:29:25.844Z,18.88
2022-09-11T23:34:27.501Z,18.25
2022-09-11T23:39:29.125Z,18.13
2022-09-11T23:44:30.786Z,21.10
2022-09-11T23:49:36.198Z,26.33
2022-09-11T23:54:38.112Z,23.50
2022-09-11T23:59:39.705Z,31.13
